createdAt,value
2018-09-26T00:00:09.254Z,6.03
2018-09-26T00:02:45.743Z,5.12
2018-09-26T00:05:16.865Z,4.90
2018-09-26T00:07:46.702Z,6.00
2018-09-26T00:10:16.498Z,2.75
2018-09-26T00:12:48.297Z,16.95
2018-09-26T00:15:18.175Z,2.67
2018-09-26T00:17:49.066Z,5.25
2018-09-26T00:20:19.838Z,4.62
2018-09-26T00:22:54.710Z,5.65
2018-09-26T00:25:26.558Z,4.85
2018-09-26T00:27:57.389Z,2.90
2018-09-26T00:30:28.230Z,1.90
2018-09-26T00:32:58.129Z,3.50
2018-09-26T00:35:27.954Z,4.35
2018-09-26T00:37:57.798Z,3.10
2018-09-26T00:40:32.506Z,6.00
2018-09-26T00:43:03.314Z,5.55
2018-09-26T00:45:33.134Z,2.37
2018-09-26T00:48:02.914Z,3.20
2018-09-26T00:50:34.842Z,4.70
2018-09-26T00:53:04.710Z,4.50
2018-09-26T00:55:41.401Z,6.37
2018-09-26T00:58:11.214Z,5.37
2018-09-26T01:00:40.994Z,4.30
2018-09-26T01:03:11.898Z,8.28
2018-09-26T01:05:42.686Z,4.80
2018-09-26T01:08:13.582Z,3.65
2018-09-26T01:10:43.438Z,4.85
2018-09-26T01:13:13.251Z,5.35
2018-09-26T01:15:50.666Z,3.37
2018-09-26T01:18:21.518Z,3.25
2018-09-26T01:20:51.622Z,5.25
2018-09-26T01:23:23.454Z,3.72
2018-09-26T01:25:54.282Z,6.58
2018-09-26T01:28:25.070Z,5.75
2018-09-26T01:30:58.598Z,7.05
2018-09-26T01:33:29.435Z,3.10
2018-09-26T01:36:03.359Z,2.30
2018-09-26T01:38:35.234Z,2.70
2018-09-26T01:41:14.223Z,4.35
2018-09-26T01:43:44.970Z,6.15
2018-09-26T01:46:15.854Z,5.58
2018-09-26T01:48:52.194Z,4.78
2018-09-26T01:51:23.054Z,3.87
2018-09-26T01:53:52.918Z,7.40
2018-09-26T01:56:23.813Z,4.00
2018-09-26T01:58:55.626Z,8.03
2018-09-26T02:01:25.442Z,8.63
2018-09-26T02:03:59.142Z,5.28
2018-09-26T02:06:29.990Z,4.83
2018-09-26T02:09:04.114Z,7.70
2018-09-26T02:11:35.270Z,6.95
2018-09-26T02:14:05.150Z,6.53
2018-09-26T02:16:35.314Z,7.50
2018-09-26T02:19:06.174Z,7.00
2018-09-26T02:21:38.358Z,8.85
2018-09-26T02:24:08.158Z,8.28
2018-09-26T02:26:40.194Z,8.98
2018-09-26T02:29:10.034Z,8.30
2018-09-26T02:31:40.922Z,8.73
2018-09-26T02:34:10.811Z,9.08
2018-09-26T02:36:41.638Z,7.95
2018-09-26T02:39:11.459Z,10.80
2018-09-26T02:41:41.305Z,12.85
2018-09-26T02:44:11.193Z,7.20
2018-09-26T02:46:42.026Z,7.05
2018-09-26T02:49:12.881Z,10.75
2018-09-26T02:51:42.826Z,8.53
2018-09-26T02:54:13.710Z,11.12
2018-09-26T02:56:44.562Z,10.13
2018-09-26T02:59:14.530Z,16.80
2018-09-26T03:01:44.399Z,8.48
2018-09-26T03:04:17.434Z,9.68
2018-09-26T03:06:49.302Z,9.60
2018-09-26T03:09:19.153Z,8.63
2018-09-26T03:11:48.949Z,7.00
2018-09-26T03:14:18.755Z,6.78
2018-09-26T03:17:00.374Z,7.22
2018-09-26T03:19:37.262Z,12.25
2018-09-26T03:22:10.547Z,12.40
2018-09-26T03:24:41.398Z,13.70
2018-09-26T03:27:11.270Z,12.75
2018-09-26T03:29:44.246Z,10.88
2018-09-26T03:32:16.034Z,8.18
2018-09-26T03:34:45.937Z,11.75
2018-09-26T03:37:15.847Z,6.15
2018-09-26T03:39:49.813Z,8.20
2018-09-26T03:42:21.602Z,8.75
2018-09-26T03:45:02.401Z,8.33
2018-09-26T03:47:48.838Z,10.32
2018-09-26T03:50:19.725Z,11.63
2018-09-26T03:52:51.610Z,7.05
2018-09-26T03:55:23.429Z,16.15
2018-09-26T03:57:58.482Z,8.93
2018-09-26T04:00:28.405Z,9.25
2018-09-26T04:02:58.305Z,9.90
2018-09-26T04:05:34.141Z,11.22
2018-09-26T04:08:03.957Z,9.38
2018-09-26T04:10:35.801Z,8.08
2018-09-26T04:13:05.705Z,9.25
2018-09-26T04:15:42.974Z,14.58
2018-09-26T04:18:12.746Z,11.08
2018-09-26T04:20:42.657Z,7.95
2018-09-26T04:23:13.150Z,9.80
2018-09-26T04:25:46.569Z,8.38
2018-09-26T04:28:17.446Z,6.20
2018-09-26T04:30:47.313Z,8.85
2018-09-26T04:33:17.435Z,7.20
2018-09-26T04:35:50.716Z,5.90
2018-09-26T04:38:21.581Z,9.45
2018-09-26T04:40:51.386Z,9.08
2018-09-26T04:43:24.346Z,7.95
2018-09-26T04:45:54.154Z,9.00
2018-09-26T04:48:23.981Z,11.45
2018-09-26T04:50:54.866Z,5.60
2018-09-26T04:53:24.814Z,8.18
2018-09-26T04:55:54.685Z,4.97
2018-09-26T04:58:27.857Z,9.18
2018-09-26T05:00:57.745Z,5.55
2018-09-26T05:03:31.336Z,5.05
2018-09-26T05:06:01.117Z,5.90
2018-09-26T05:08:32.902Z,6.22
2018-09-26T05:11:02.730Z,7.78
2018-09-26T05:13:33.550Z,4.50
2018-09-26T05:16:03.341Z,5.87
2018-09-26T05:18:38.178Z,4.87
2018-09-26T05:21:10.174Z,6.35
2018-09-26T05:23:51.442Z,7.12
2018-09-26T05:26:21.445Z,4.42
2018-09-26T05:28:55.963Z,6.58
2018-09-26T05:31:27.833Z,6.30
2018-09-26T05:33:57.646Z,10.13
2018-09-26T05:36:38.342Z,9.40
2018-09-26T05:39:10.941Z,10.82
2018-09-26T05:41:40.910Z,11.75
2018-09-26T05:44:14.178Z,11.57
2018-09-26T05:46:49.141Z,13.98
2018-09-26T05:49:20.974Z,15.88
2018-09-26T05:51:52.865Z,13.88
2018-09-26T05:54:24.681Z,14.45
2018-09-26T05:56:54.501Z,11.78
2018-09-26T05:59:26.368Z,14.05
2018-09-26T06:02:02.975Z,10.10
2018-09-26T06:04:38.502Z,11.88
2018-09-26T06:07:08.313Z,12.18
2018-09-26T06:09:38.145Z,13.00
2018-09-26T06:12:08.025Z,9.60
2018-09-26T06:14:37.809Z,8.30
2018-09-26T06:17:12.330Z,8.98
2018-09-26T06:19:43.165Z,8.28
2018-09-26T06:22:14.950Z,10.10
2018-09-26T06:24:49.033Z,10.40
2018-09-26T06:27:18.705Z,9.58
2018-09-26T06:29:48.469Z,10.25
2018-09-26T06:32:19.261Z,5.75
2018-09-26T06:34:50.083Z,7.22
2018-09-26T06:37:21.864Z,5.92
2018-09-26T06:39:51.739Z,4.10
2018-09-26T06:42:22.501Z,3.77
2018-09-26T06:44:52.378Z,3.50
2018-09-26T06:47:29.135Z,4.90
2018-09-26T06:49:58.937Z,3.50
2018-09-26T06:52:28.749Z,3.58
2018-09-26T06:55:00.481Z,4.35
2018-09-26T06:57:30.257Z,2.70
2018-09-26T07:00:02.029Z,3.95
2018-09-26T07:02:33.869Z,3.67
2018-09-26T07:05:11.825Z,2.65
2018-09-26T07:07:47.609Z,5.87
2018-09-26T07:10:17.606Z,3.70
2018-09-26T07:12:50.665Z,6.12
2018-09-26T07:15:20.421Z,2.35
2018-09-26T07:17:50.377Z,3.62
2018-09-26T07:20:20.417Z,2.05
2018-09-26T07:22:51.261Z,3.95
2018-09-26T07:25:23.027Z,2.22
2018-09-26T07:27:52.789Z,4.25
2018-09-26T07:30:22.537Z,2.80
2018-09-26T07:32:52.459Z,3.62
2018-09-26T07:35:22.286Z,3.22
2018-09-26T07:37:53.057Z,2.47
2018-09-26T07:40:22.942Z,4.10
2018-09-26T07:42:52.745Z,3.22
2018-09-26T07:45:25.882Z,2.02
2018-09-26T07:47:55.654Z,1.80
2018-09-26T07:50:27.472Z,3.10
2018-09-26T07:52:57.322Z,2.85
2018-09-26T07:55:28.119Z,6.60
2018-09-26T07:57:57.967Z,3.93
2018-09-26T08:00:27.706Z,2.50
2018-09-26T08:02:57.576Z,2.67
2018-09-26T08:05:28.317Z,6.22
2018-09-26T08:07:58.101Z,4.70
2018-09-26T08:10:31.214Z,3.73
2018-09-26T08:13:01.974Z,2.20
2018-09-26T08:15:32.957Z,2.40
2018-09-26T08:18:02.759Z,4.43
2018-09-26T08:20:32.502Z,3.27
2018-09-26T08:23:02.321Z,2.10
2018-09-26T08:25:32.094Z,3.20
2018-09-26T08:28:01.897Z,1.90
2018-09-26T08:30:31.685Z,2.63
2018-09-26T08:33:01.502Z,3.10
2018-09-26T08:35:37.321Z,3.50
2018-09-26T08:38:07.153Z,2.43
2018-09-26T08:40:37.929Z,3.67
2018-09-26T08:43:15.577Z,1.97
2018-09-26T08:45:49.083Z,3.90
2018-09-26T08:48:19.917Z,2.70
2018-09-26T08:50:49.741Z,7.27
2018-09-26T08:53:20.569Z,4.70
2018-09-26T08:55:51.440Z,3.00
2018-09-26T08:58:21.336Z,5.47
2018-09-26T09:00:52.081Z,2.17
2018-09-26T09:03:22.006Z,2.13
2018-09-26T09:05:52.227Z,2.20
2018-09-26T09:08:25.369Z,3.17
2018-09-26T09:10:55.141Z,2.50
2018-09-26T09:13:28.036Z,1.93
2018-09-26T09:15:58.923Z,1.90
2018-09-26T09:18:29.705Z,1.60
2018-09-26T09:20:59.525Z,2.83
2018-09-26T09:23:29.297Z,1.83
2018-09-26T09:26:01.054Z,2.90
2018-09-26T09:28:30.901Z,1.73
2018-09-26T09:31:00.709Z,1.90
2018-09-26T09:33:34.197Z,4.50
2018-09-26T09:36:06.090Z,2.40
2018-09-26T09:38:35.869Z,1.30
2018-09-26T09:41:07.093Z,2.73
2018-09-26T09:43:36.937Z,1.90
2018-09-26T09:46:14.565Z,1.80
2018-09-26T09:48:45.345Z,1.77
2018-09-26T09:51:16.259Z,2.30
2018-09-26T09:53:48.057Z,1.70
2018-09-26T09:56:17.968Z,3.37
2018-09-26T09:58:51.178Z,4.70
2018-09-26T10:01:26.293Z,3.40
2018-09-26T10:04:01.656Z,5.50
2018-09-26T10:06:38.473Z,1.77
2018-09-26T10:09:08.653Z,4.87
2018-09-26T10:11:40.229Z,5.60
2018-09-26T10:14:11.077Z,2.80
2018-09-26T10:16:40.842Z,3.53
2018-09-26T10:19:11.666Z,2.43
2018-09-26T10:21:43.433Z,1.80
2018-09-26T10:24:20.157Z,2.97
2018-09-26T10:26:53.513Z,2.50
2018-09-26T10:29:23.301Z,3.53
2018-09-26T10:31:53.152Z,2.10
2018-09-26T10:34:23.936Z,3.23
2018-09-26T10:36:54.829Z,1.77
2018-09-26T10:39:24.577Z,4.40
2018-09-26T10:41:55.449Z,1.77
2018-09-26T10:44:25.386Z,1.57
2018-09-26T10:46:59.169Z,2.20
2018-09-26T10:49:34.047Z,4.10
2018-09-26T10:52:03.937Z,3.30
2018-09-26T10:54:34.731Z,2.40
2018-09-26T10:57:04.569Z,3.97
2018-09-26T10:59:44.229Z,2.47
2018-09-26T11:02:16.045Z,2.20
2018-09-26T11:04:45.757Z,2.80
2018-09-26T11:07:15.533Z,1.93
2018-09-26T11:09:49.585Z,1.83
2018-09-26T11:12:20.474Z,1.93
2018-09-26T11:14:51.261Z,2.77
2018-09-26T11:17:23.153Z,2.40
2018-09-26T11:19:52.902Z,2.93
2018-09-26T11:22:24.010Z,2.73
2018-09-26T11:24:53.685Z,1.63
2018-09-26T11:27:23.541Z,1.87
2018-09-26T11:29:53.405Z,2.47
2018-09-26T11:32:23.281Z,1.73
2018-09-26T11:34:54.061Z,2.30
2018-09-26T11:37:23.861Z,3.10
2018-09-26T11:39:53.785Z,2.87
2018-09-26T11:42:23.601Z,3.57
2018-09-26T11:44:53.410Z,5.57
2018-09-26T11:47:23.261Z,6.40
2018-09-26T11:49:53.133Z,1.70
2018-09-26T11:52:22.966Z,3.23
2018-09-26T11:54:53.825Z,2.43
2018-09-26T11:57:29.134Z,2.47
2018-09-26T11:59:59.957Z,1.93
2018-09-26T12:02:30.823Z,2.10
2018-09-26T12:05:00.569Z,6.13
2018-09-26T12:07:33.647Z,2.77
2018-09-26T12:10:03.425Z,3.97
2018-09-26T12:12:37.449Z,2.20
2018-09-26T12:15:09.297Z,3.37
2018-09-26T12:17:40.377Z,1.63
2018-09-26T12:20:11.161Z,2.03
2018-09-26T12:22:46.821Z,1.60
2018-09-26T12:25:17.677Z,4.13
2018-09-26T12:27:47.494Z,1.57
2018-09-26T12:30:21.057Z,2.30
2018-09-26T12:32:54.673Z,1.80
2018-09-26T12:35:24.553Z,2.30
2018-09-26T12:37:54.433Z,1.33
2018-09-26T12:40:25.320Z,1.60
2018-09-26T12:42:55.076Z,4.30
2018-09-26T12:45:24.829Z,2.37
2018-09-26T12:47:55.736Z,1.30
2018-09-26T12:50:27.493Z,3.13
2018-09-26T12:52:58.504Z,2.20
2018-09-26T12:55:28.393Z,4.67
2018-09-26T12:57:58.849Z,2.87
2018-09-26T13:00:32.576Z,2.20
2018-09-26T13:03:02.337Z,2.57
2018-09-26T13:05:35.513Z,3.57
2018-09-26T13:08:06.450Z,1.90
2018-09-26T13:10:36.281Z,1.77
2018-09-26T13:13:09.951Z,2.30
2018-09-26T13:15:45.105Z,2.23
2018-09-26T13:18:14.962Z,2.90
2018-09-26T13:20:44.713Z,2.20
2018-09-26T13:23:14.469Z,1.60
2018-09-26T13:25:44.289Z,1.87
2018-09-26T13:28:15.201Z,6.17
2018-09-26T13:30:45.985Z,2.37
2018-09-26T13:33:15.853Z,3.83
2018-09-26T13:35:45.617Z,3.70
2018-09-26T13:38:15.460Z,1.47
2018-09-26T13:40:45.253Z,5.60
2018-09-26T13:43:16.065Z,2.00
2018-09-26T13:45:49.643Z,5.40
2018-09-26T13:48:23.960Z,2.50
2018-09-26T13:50:53.624Z,2.97
2018-09-26T13:53:23.638Z,4.00
2018-09-26T13:55:53.385Z,3.20
2018-09-26T13:58:23.316Z,2.73
2018-09-26T14:00:53.052Z,3.80
2018-09-26T14:03:28.014Z,2.40
2018-09-26T14:05:57.757Z,2.83
2018-09-26T14:08:29.581Z,2.60
2018-09-26T14:10:59.314Z,2.57
2018-09-26T14:13:32.157Z,1.60
2018-09-26T14:16:05.304Z,2.33
2018-09-26T14:18:37.360Z,2.97
2018-09-26T14:21:07.373Z,2.17
2018-09-26T14:23:37.306Z,2.50
2018-09-26T14:26:08.167Z,2.70
2018-09-26T14:28:42.417Z,2.40
2018-09-26T14:31:15.313Z,2.50
2018-09-26T14:33:46.219Z,2.50
2018-09-26T14:36:17.167Z,3.03
2018-09-26T14:38:52.462Z,2.23
2018-09-26T14:41:32.509Z,2.40
2018-09-26T14:44:05.914Z,1.60
2018-09-26T14:46:35.773Z,3.43
2018-09-26T14:49:06.619Z,2.03
2018-09-26T14:51:38.393Z,3.83
2018-09-26T14:54:08.433Z,5.57
2018-09-26T14:56:40.343Z,1.43
2018-09-26T14:59:11.209Z,2.00
2018-09-26T15:01:40.949Z,3.80
2018-09-26T15:04:18.142Z,3.93
2018-09-26T15:06:54.880Z,1.60
2018-09-26T15:09:34.716Z,3.33
2018-09-26T15:12:04.592Z,2.43
2018-09-26T15:14:34.297Z,2.90
2018-09-26T15:17:04.138Z,1.80
2018-09-26T15:19:33.905Z,1.40
2018-09-26T15:22:03.753Z,1.97
2018-09-26T15:24:35.500Z,3.20
2018-09-26T15:27:05.351Z,2.40
2018-09-26T15:29:35.252Z,1.73
2018-09-26T15:32:05.056Z,2.30
2018-09-26T15:34:35.856Z,2.07
2018-09-26T15:37:07.656Z,3.47
2018-09-26T15:39:38.479Z,3.60
2018-09-26T15:42:08.300Z,1.70
2018-09-26T15:44:38.200Z,3.50
2018-09-26T15:47:24.763Z,2.33
2018-09-26T15:49:56.536Z,1.87
2018-09-26T15:52:35.299Z,3.20
2018-09-26T15:55:05.132Z,2.20
2018-09-26T15:57:35.043Z,4.87
2018-09-26T16:00:05.190Z,1.67
2018-09-26T16:02:35.948Z,3.23
2018-09-26T16:05:06.660Z,1.87
2018-09-26T16:07:36.532Z,1.70
2018-09-26T16:10:07.395Z,1.47
2018-09-26T16:12:44.060Z,3.90
2018-09-26T16:15:17.281Z,5.40
2018-09-26T16:17:47.109Z,5.90
2018-09-26T16:20:17.972Z,1.20
2018-09-26T16:22:47.784Z,5.37
2018-09-26T16:25:17.597Z,4.23
2018-09-26T16:27:49.340Z,1.43
2018-09-26T16:30:22.736Z,1.70
2018-09-26T16:32:57.252Z,1.70
2018-09-26T16:35:27.049Z,2.60
2018-09-26T16:37:58.920Z,3.77
2018-09-26T16:40:29.753Z,2.47
2018-09-26T16:42:59.597Z,3.73
2018-09-26T16:45:29.501Z,3.03
2018-09-26T16:48:00.130Z,4.10
2018-09-26T16:50:33.801Z,2.33
2018-09-26T16:53:06.956Z,5.30
2018-09-26T16:55:36.847Z,2.53
2018-09-26T16:58:07.764Z,4.30
2018-09-26T17:00:38.629Z,3.60
2018-09-26T17:03:09.465Z,3.60
2018-09-26T17:05:39.363Z,3.30
2018-09-26T17:08:11.242Z,1.43
2018-09-26T17:10:42.057Z,3.00
2018-09-26T17:13:11.892Z,4.17
2018-09-26T17:15:41.789Z,6.07
2018-09-26T17:18:12.865Z,6.27
2018-09-26T17:20:43.673Z,3.97
2018-09-26T17:23:13.491Z,3.37
2018-09-26T17:25:43.363Z,5.73
2018-09-26T17:28:13.260Z,8.80
2018-09-26T17:30:44.157Z,10.30
2018-09-26T17:33:14.083Z,9.07
2018-09-26T17:35:47.835Z,4.93
2018-09-26T17:38:23.224Z,13.70
2018-09-26T17:40:53.119Z,15.80
2018-09-26T17:43:25.006Z,22.23
2018-09-26T17:45:54.876Z,15.93
2018-09-26T17:48:25.764Z,6.27
2018-09-26T17:50:56.540Z,7.87
2018-09-26T17:53:27.088Z,10.57
2018-09-26T17:55:57.891Z,16.33
2018-09-26T17:58:33.264Z,11.97
2018-09-26T18:01:04.120Z,10.97
2018-09-26T18:03:34.920Z,13.53
2018-09-26T18:06:04.860Z,12.40
2018-09-26T18:08:35.700Z,17.57
2018-09-26T18:11:07.000Z,21.53
2018-09-26T18:13:37.859Z,12.27
2018-09-26T18:16:08.860Z,12.63
2018-09-26T18:18:40.761Z,15.17
2018-09-26T18:23:51.824Z,16.90
2018-09-26T18:26:25.025Z,18.12
2018-09-26T18:28:56.028Z,22.10
2018-09-26T18:31:25.913Z,17.10
2018-09-26T18:33:55.805Z,14.40
2018-09-26T18:36:26.657Z,16.07
2018-09-26T18:38:56.625Z,20.10
2018-09-26T18:41:30.304Z,16.75
2018-09-26T18:44:01.209Z,16.42
2018-09-26T18:46:32.048Z,9.00
2018-09-26T18:49:02.873Z,12.65
2018-09-26T18:51:32.688Z,13.65
2018-09-26T18:54:04.557Z,10.43
2018-09-26T18:56:34.340Z,9.35
2018-09-26T18:59:04.254Z,7.97
2018-09-26T19:01:35.892Z,6.37
2018-09-26T19:04:05.729Z,6.70
2018-09-26T19:06:40.801Z,5.60
2018-09-26T19:09:12.025Z,4.20
2018-09-26T19:11:44.277Z,5.83
2018-09-26T19:14:14.113Z,5.05
2018-09-26T19:16:43.993Z,2.92
2018-09-26T19:19:14.857Z,3.98
2018-09-26T19:21:45.681Z,3.80
2018-09-26T19:24:17.500Z,4.53
2018-09-26T19:26:48.376Z,5.08
2018-09-26T19:29:19.204Z,4.47
2018-09-26T19:31:50.589Z,4.42
2018-09-26T19:34:22.196Z,8.30
2018-09-26T19:36:56.020Z,5.72
2018-09-26T19:39:26.824Z,5.53
2018-09-26T19:41:56.677Z,3.95
2018-09-26T19:44:31.240Z,3.65
2018-09-26T19:47:01.125Z,7.80
2018-09-26T19:49:31.012Z,4.72
2018-09-26T19:52:05.704Z,9.45
2018-09-26T19:54:40.029Z,5.00
2018-09-26T19:57:09.908Z,4.50
2018-09-26T19:59:39.796Z,5.42
2018-09-26T20:02:10.630Z,4.20
2018-09-26T20:04:42.508Z,6.37
2018-09-26T20:07:12.388Z,4.40
2018-09-26T20:09:42.197Z,4.10
2018-09-26T20:12:17.477Z,4.25
2018-09-26T20:14:47.424Z,3.77
2018-09-26T20:17:19.268Z,3.17
2018-09-26T20:19:53.145Z,4.90
2018-09-26T20:22:24.020Z,8.63
2018-09-26T20:24:54.925Z,5.40
2018-09-26T20:27:24.817Z,3.85
2018-09-26T20:29:57.984Z,4.35
2018-09-26T20:32:31.258Z,3.30
2018-09-26T20:35:01.296Z,5.60
2018-09-26T20:37:34.789Z,4.37
2018-09-26T20:40:04.669Z,4.03
2018-09-26T20:42:34.556Z,8.20
2018-09-26T20:45:04.552Z,4.30
2018-09-26T20:47:41.844Z,5.97
2018-09-26T20:50:11.783Z,6.87
2018-09-26T20:52:42.616Z,4.37
2018-09-26T20:55:12.508Z,5.58
2018-09-26T20:57:42.304Z,4.05
2018-09-26T21:00:19.935Z,5.08
2018-09-26T21:02:49.884Z,4.50
2018-09-26T21:05:19.720Z,4.53
2018-09-26T21:07:50.588Z,5.97
2018-09-26T21:10:20.412Z,4.42
2018-09-26T21:12:50.337Z,5.30
2018-09-26T21:15:21.196Z,4.92
2018-09-26T21:17:51.126Z,4.45
2018-09-26T21:20:24.341Z,5.97
2018-09-26T21:22:54.179Z,4.80
2018-09-26T21:25:24.033Z,5.83
2018-09-26T21:27:54.929Z,4.62
2018-09-26T21:30:24.721Z,4.90
2018-09-26T21:32:55.561Z,5.10
2018-09-26T21:35:30.717Z,4.85
2018-09-26T21:38:00.645Z,7.20
2018-09-26T21:40:38.089Z,6.50
2018-09-26T21:43:08.913Z,4.65
2018-09-26T21:45:46.737Z,5.03
2018-09-26T21:48:20.233Z,5.65
2018-09-26T21:50:51.405Z,5.30
2018-09-26T21:53:21.280Z,4.75
2018-09-26T21:55:56.504Z,5.35
2018-09-26T21:58:27.371Z,7.12
2018-09-26T22:01:03.683Z,6.12
2018-09-26T22:03:36.503Z,6.75
2018-09-26T22:06:06.354Z,9.33
2018-09-26T22:08:37.166Z,7.30
2018-09-26T22:11:11.989Z,9.80
2018-09-26T22:13:41.830Z,13.68
2018-09-26T22:16:13.682Z,16.10
2018-09-26T22:18:49.130Z,27.50
2018-09-26T22:21:24.549Z,25.37
2018-09-26T22:23:54.398Z,20.30
2018-09-26T22:26:26.218Z,14.10
2018-09-26T22:28:57.070Z,14.00
2018-09-26T22:31:26.982Z,7.17
2018-09-26T22:33:57.802Z,7.72
2018-09-26T22:36:28.670Z,9.03
2018-09-26T22:38:59.495Z,14.33
2018-09-26T22:41:29.375Z,9.55
2018-09-26T22:44:04.107Z,9.00
2018-09-26T22:46:35.104Z,10.28
2018-09-26T22:49:05.019Z,8.45
2018-09-26T22:51:34.900Z,8.83
2018-09-26T22:54:04.788Z,8.45
2018-09-26T22:56:35.699Z,10.53
2018-09-26T22:59:05.540Z,7.78
2018-09-26T23:01:35.347Z,6.37
2018-09-26T23:04:05.212Z,7.90
2018-09-26T23:06:42.256Z,6.10
2018-09-26T23:09:12.951Z,7.35
2018-09-26T23:11:43.811Z,6.97
2018-09-26T23:14:20.219Z,7.75
2018-09-26T23:16:51.105Z,8.75
2018-09-26T23:19:25.775Z,7.20
2018-09-26T23:21:55.627Z,5.92
2018-09-26T23:24:31.949Z,6.97
2018-09-26T23:27:05.487Z,6.78
2018-09-26T23:29:35.383Z,5.85
2018-09-26T23:32:12.596Z,11.73
2018-09-26T23:34:43.463Z,5.70
2018-09-26T23:37:15.344Z,6.03
2018-09-26T23:39:45.203Z,6.03
2018-09-26T23:42:16.044Z,9.35
2018-09-26T23:44:46.895Z,5.37
2018-09-26T23:47:18.743Z,5.80
2018-09-26T23:49:48.591Z,8.90
2018-09-26T23:52:18.571Z,6.08
2018-09-26T23:54:48.439Z,11.00
2018-09-26T23:57:18.331Z,6.75
2018-09-26T23:59:48.091Z,6.83
